Buoy 52912

sailwx.info

Track history (hours):
 
Tides and Currents Weather Stations Pressure Air Temp Water Temp Dewpoint Dewpoint Depression Visibility Wind Speed Wind Dir Waves Ship Positions

Drifting buoy 52912

Last reported at 2014-Sep-20 10:00 UTC. Time now 2014-Sep-20 12:03 UTC.
Position N 07°42' E 156°44'.

Water temperature 30.3 ° C

Date/timePositionNaut miles runAvg speedWind from/ knotsBaromVisibWave heightAir tempDewpointWater temp
2014-Sep-20 10:00N 07°42' E 156°44'1 0.2 30.3
2014-Sep-20 02:00N 07°40' E 156°44'1 0.5 30.9
2014-Sep-20 00:00N 07°42' E 156°44'0 0.0 30.5
2014-Sep-19 23:00N 07°42' E 156°44'0 0.0 30.2
2014-Sep-19 22:00N 07°42' E 156°44'1 0.2 30.2
2014-Sep-19 19:00N 07°42' E 156°44'1 0.5 30.1
2014-Sep-19 17:00N 07°42' E 156°43'0 0.2 30.1
2014-Sep-19 16:00N 07°43' E 156°43'0 0.0 30.1
2014-Sep-19 15:00N 07°43' E 156°43'1 0.2 30.2
2014-Sep-19 11:00N 07°42' E 156°44'1 0.4 30.3
2014-Sep-19 09:00N 07°43' E 156°45'1 1.0 30.5
2014-Sep-19 08:00N 07°42' E 156°45'0 0.0 30.7
2014-Sep-19 07:00N 07°42' E 156°45'0 0.4 30.9
2014-Sep-19 06:00N 07°42' E 156°46'1 0.3 31.0
2014-Sep-19 04:00N 07°43' E 156°45'2 0.4 31.1
2014-Sep-18 23:00N 07°41' E 156°47'3 0.6 30.5
2014-Sep-18 19:00N 07°42' E 156°49'0 0.0 30.1
2014-Sep-18 18:00N 07°42' E 156°49'1 0.5 30.2
2014-Sep-18 17:00N 07°42' E 156°49'0 0.3 30.2
2014-Sep-18 16:00N 07°43' E 156°49'0 0.0 30.2
2014-Sep-18 15:00N 07°43' E 156°49'2 0.5 30.2
2014-Sep-18 11:00N 07°42' E 156°51'2 2.0 30.3
2014-Sep-18 10:00N 07°44' E 156°53'2 0.5 30.4
2014-Sep-18 06:00N 07°46' E 156°53'0 0.0 30.6
2014-Sep-18 04:00N 07°46' E 156°53'0 0.2 30.7
2014-Sep-18 02:00N 07°46' E 156°53'1 0.7 30.4
2014-Sep-18 00:00N 07°48' E 156°53'2 2.1 30.1
2014-Sep-17 23:00N 07°46' E 156°55'1 0.3 30.1
2014-Sep-17 20:00N 07°47' E 156°54'1 1.1 30.0
2014-Sep-17 19:00N 07°48' E 156°55'1 0.7 30.0
2014-Sep-17 18:00N 07°48' E 156°55'0 0.0 30.0
2014-Sep-17 17:00N 07°48' E 156°55'2 0.8 30.0
2014-Sep-17 15:00N 07°50' E 156°54'1 0.1 30.0
2014-Sep-17 10:00N 07°50' E 156°54'1 0.1 30.1
2014-Sep-17 04:00N 07°50' E 156°54'1 0.9 31.0
2014-Sep-17 03:00N 07°50' E 156°53'0 0.0 30.5
2014-Sep-17 02:00N 07°50' E 156°53'2 1.8 30.6
2014-Sep-17 01:00N 07°48' E 156°53'0 0.0 30.4
2014-Sep-17 00:00N 07°48' E 156°53'2 2.3 30.1
2014-Sep-16 23:00N 07°46' E 156°55'0 0.0 30.0
2014-Sep-16 21:00N 07°46' E 156°55'0 0.2 30.0
2014-Sep-16 19:00N 07°46' E 156°55'1 0.3 30.0
2014-Sep-16 17:00N 07°47' E 156°55'1 0.9 30.0
2014-Sep-16 16:00N 07°47' E 156°56'2 1.6 30.0
2014-Sep-16 15:00N 07°45' E 156°56'1 0.3 30.0
2014-Sep-16 11:00N 07°44' E 156°56'0 0.1 30.1
2014-Sep-16 10:00N 07°44' E 156°56'3 1.3 30.2
2014-Sep-16 08:00N 07°43' E 156°58'2 0.4 30.3
2014-Sep-16 04:00N 07°44' E 156°60'1 0.8 30.6
2014-Sep-16 03:00N 07°44' E 157°01'0 0.1 30.4
2014-Sep-16 02:00N 07°44' E 157°01'3 0.8 30.3
2014-Sep-15 22:00N 07°42' E 157°04'4 1.0 30.0
2014-Sep-15 18:00N 07°42' E 157°08'2 0.6 30.0
2014-Sep-15 15:00N 07°43' E 157°09'0 0.0 30.1
2014-Sep-15 14:00N 07°43' E 157°09'3 1.4 30.1
2014-Sep-15 12:00N 07°44' E 157°12'2 0.9 30.2
2014-Sep-15 10:00N 07°44' E 157°14'4 1.3 30.2
2014-Sep-15 07:00N 07°47' E 157°16'0 0.0 30.7
2014-Sep-15 06:00N 07°47' E 157°16'0 0.0 30.9
2014-Sep-15 05:00N 07°47' E 157°16'3 2.6 30.8
2014-Sep-15 04:00N 07°50' E 157°16'0 0.0 30.7
2014-Sep-15 03:00N 07°50' E 157°16'4 1.2 30.6
2014-Sep-15 00:00N 07°53' E 157°17'2 0.6 30.3
2014-Sep-14 20:00N 07°55' E 157°19'0 0.1 29.9
2014-Sep-14 18:00N 07°55' E 157°19'2 0.9 29.9
2014-Sep-14 16:00N 07°57' E 157°18'2 2.0 29.9
2014-Sep-14 15:00N 07°59' E 157°18'2 0.4 29.9
2014-Sep-14 11:00N 08°00' E 157°17'1 0.3 29.9
2014-Sep-14 06:00N 08°01' E 157°16'0 0.4 30.0
2014-Sep-14 05:00N 08°01' E 157°16'1 1.2 30.1
2014-Sep-14 04:00N 08°00' E 157°14'0 0.0 30.1
2014-Sep-14 03:00N 08°00' E 157°14'2 0.4 30.1
2014-Sep-13 23:00N 08°01' E 157°13'2 0.6 29.9
2014-Sep-13 19:00N 07°59' E 157°11'2 0.3 29.9
2014-Sep-13 11:00N 07°56' E 157°12'0 0.3 29.9
2014-Sep-13 10:00N 07°56' E 157°12'7 0.7 30.0
2014-Sep-12 23:00N 07°51' E 157°17'0 0.0 30.0
2014-Sep-12 19:00N 07°51' E 157°17'1 1.2 30.0
2014-Sep-12 18:00N 07°51' E 157°19'0 0.0 30.0
2014-Sep-12 16:00N 07°51' E 157°19'1 0.7 30.0
2014-Sep-12 15:00N 07°51' E 157°19'7 0.9 30.1
2014-Sep-12 07:00N 07°50' E 157°26'1 0.5 30.4
2014-Sep-12 05:00N 07°51' E 157°27'2 0.9 30.6
2014-Sep-12 03:00N 07°52' E 157°28'4 0.6 30.7
2014-Sep-11 20:00N 07°52' E 157°32'2 1.5 29.9
2014-Sep-11 19:00N 07°53' E 157°33'4 1.3 30.0
2014-Sep-11 16:00N 07°57' E 157°34'0 0.0 30.0
2014-Sep-11 15:00N 07°57' E 157°34'0 0.1 30.0
2014-Sep-11 14:00N 07°57' E 157°34'2 0.6 30.0
2014-Sep-11 10:00N 07°59' E 157°35'0 0.0 30.0
2014-Sep-11 09:00N 07°59' E 157°35'1 0.5 30.1
2014-Sep-11 06:00N 07°59' E 157°36'2 0.6 30.2
2014-Sep-11 02:00N 08°01' E 157°37'1 0.3 30.4
2014-Sep-10 22:00N 08°02' E 157°36'1 0.5 30.0
2014-Sep-10 19:00N 08°01' E 157°37'1 0.6 30.0
2014-Sep-10 18:00N 08°01' E 157°37'0 0.0 30.0
2014-Sep-10 17:00N 08°01' E 157°37'1 0.2 30.0
2014-Sep-10 11:00N 08°00' E 157°38'   30.2
Track history (hours):
 
Tides and Currents Weather Stations Pressure Air Temp Water Temp Dewpoint Dewpoint Depression Visibility Wind Speed Wind Dir Waves Ship Positions

Drifting buoy 52912

Last reported at 2014-Sep-20 10:00 UTC. Time now 2014-Sep-20 12:03 UTC.
Position N 07°42' E 156°44'.

Water temperature 30.3 ° C

Date/timePositionNaut miles runAvg speedWind from/ knotsBaromVisibWave heightAir tempDewpointWater temp
2014-Sep-20 10:00N 07°42' E 156°44'1 0.2 30.3
2014-Sep-20 02:00N 07°40' E 156°44'1 0.5 30.9
2014-Sep-20 00:00N 07°42' E 156°44'0 0.0 30.5
2014-Sep-19 23:00N 07°42' E 156°44'0 0.0 30.2
2014-Sep-19 22:00N 07°42' E 156°44'1 0.2 30.2
2014-Sep-19 19:00N 07°42' E 156°44'1 0.5 30.1
2014-Sep-19 17:00N 07°42' E 156°43'0 0.2 30.1
2014-Sep-19 16:00N 07°43' E 156°43'0 0.0 30.1
2014-Sep-19 15:00N 07°43' E 156°43'1 0.2 30.2
2014-Sep-19 11:00N 07°42' E 156°44'1 0.4 30.3
2014-Sep-19 09:00N 07°43' E 156°45'1 1.0 30.5
2014-Sep-19 08:00N 07°42' E 156°45'0 0.0 30.7
2014-Sep-19 07:00N 07°42' E 156°45'0 0.4 30.9
2014-Sep-19 06:00N 07°42' E 156°46'1 0.3 31.0
2014-Sep-19 04:00N 07°43' E 156°45'2 0.4 31.1
2014-Sep-18 23:00N 07°41' E 156°47'3 0.6 30.5
2014-Sep-18 19:00N 07°42' E 156°49'0 0.0 30.1
2014-Sep-18 18:00N 07°42' E 156°49'1 0.5 30.2
2014-Sep-18 17:00N 07°42' E 156°49'0 0.3 30.2
2014-Sep-18 16:00N 07°43' E 156°49'0 0.0 30.2
2014-Sep-18 15:00N 07°43' E 156°49'2 0.5 30.2
2014-Sep-18 11:00N 07°42' E 156°51'2 2.0 30.3
2014-Sep-18 10:00N 07°44' E 156°53'2 0.5 30.4
2014-Sep-18 06:00N 07°46' E 156°53'0 0.0 30.6
2014-Sep-18 04:00N 07°46' E 156°53'0 0.2 30.7
2014-Sep-18 02:00N 07°46' E 156°53'1 0.7 30.4
2014-Sep-18 00:00N 07°48' E 156°53'2 2.1 30.1
2014-Sep-17 23:00N 07°46' E 156°55'1 0.3 30.1
2014-Sep-17 20:00N 07°47' E 156°54'1 1.1 30.0
2014-Sep-17 19:00N 07°48' E 156°55'1 0.7 30.0
2014-Sep-17 18:00N 07°48' E 156°55'0 0.0 30.0
2014-Sep-17 17:00N 07°48' E 156°55'2 0.8 30.0
2014-Sep-17 15:00N 07°50' E 156°54'1 0.1 30.0
2014-Sep-17 10:00N 07°50' E 156°54'1 0.1 30.1
2014-Sep-17 04:00N 07°50' E 156°54'1 0.9 31.0
2014-Sep-17 03:00N 07°50' E 156°53'0 0.0 30.5
2014-Sep-17 02:00N 07°50' E 156°53'2 1.8 30.6
2014-Sep-17 01:00N 07°48' E 156°53'0 0.0 30.4
2014-Sep-17 00:00N 07°48' E 156°53'2 2.3 30.1
2014-Sep-16 23:00N 07°46' E 156°55'0 0.0 30.0
2014-Sep-16 21:00N 07°46' E 156°55'0 0.2 30.0
2014-Sep-16 19:00N 07°46' E 156°55'1 0.3 30.0
2014-Sep-16 17:00N 07°47' E 156°55'1 0.9 30.0
2014-Sep-16 16:00N 07°47' E 156°56'2 1.6 30.0
2014-Sep-16 15:00N 07°45' E 156°56'1 0.3 30.0
2014-Sep-16 11:00N 07°44' E 156°56'0 0.1 30.1
2014-Sep-16 10:00N 07°44' E 156°56'3 1.3 30.2
2014-Sep-16 08:00N 07°43' E 156°58'2 0.4 30.3
2014-Sep-16 04:00N 07°44' E 156°60'1 0.8 30.6
2014-Sep-16 03:00N 07°44' E 157°01'0 0.1 30.4
2014-Sep-16 02:00N 07°44' E 157°01'3 0.8 30.3
2014-Sep-15 22:00N 07°42' E 157°04'4 1.0 30.0
2014-Sep-15 18:00N 07°42' E 157°08'2 0.6 30.0
2014-Sep-15 15:00N 07°43' E 157°09'0 0.0 30.1
2014-Sep-15 14:00N 07°43' E 157°09'3 1.4 30.1
2014-Sep-15 12:00N 07°44' E 157°12'2 0.9 30.2
2014-Sep-15 10:00N 07°44' E 157°14'4 1.3 30.2
2014-Sep-15 07:00N 07°47' E 157°16'0 0.0 30.7
2014-Sep-15 06:00N 07°47' E 157°16'0 0.0 30.9
2014-Sep-15 05:00N 07°47' E 157°16'3 2.6 30.8
2014-Sep-15 04:00N 07°50' E 157°16'0 0.0 30.7
2014-Sep-15 03:00N 07°50' E 157°16'4 1.2 30.6
2014-Sep-15 00:00N 07°53' E 157°17'2 0.6 30.3
2014-Sep-14 20:00N 07°55' E 157°19'0 0.1 29.9
2014-Sep-14 18:00N 07°55' E 157°19'2 0.9 29.9
2014-Sep-14 16:00N 07°57' E 157°18'2 2.0 29.9
2014-Sep-14 15:00N 07°59' E 157°18'2 0.4 29.9
2014-Sep-14 11:00N 08°00' E 157°17'1 0.3 29.9
2014-Sep-14 06:00N 08°01' E 157°16'0 0.4 30.0
2014-Sep-14 05:00N 08°01' E 157°16'1 1.2 30.1
2014-Sep-14 04:00N 08°00' E 157°14'0 0.0 30.1
2014-Sep-14 03:00N 08°00' E 157°14'2 0.4 30.1
2014-Sep-13 23:00N 08°01' E 157°13'2 0.6 29.9
2014-Sep-13 19:00N 07°59' E 157°11'2 0.3 29.9
2014-Sep-13 11:00N 07°56' E 157°12'0 0.3 29.9
2014-Sep-13 10:00N 07°56' E 157°12'7 0.7 30.0
2014-Sep-12 23:00N 07°51' E 157°17'0 0.0 30.0
2014-Sep-12 19:00N 07°51' E 157°17'1 1.2 30.0
2014-Sep-12 18:00N 07°51' E 157°19'0 0.0 30.0
2014-Sep-12 16:00N 07°51' E 157°19'1 0.7 30.0
2014-Sep-12 15:00N 07°51' E 157°19'7 0.9 30.1
2014-Sep-12 07:00N 07°50' E 157°26'1 0.5 30.4
2014-Sep-12 05:00N 07°51' E 157°27'2 0.9 30.6
2014-Sep-12 03:00N 07°52' E 157°28'4 0.6 30.7
2014-Sep-11 20:00N 07°52' E 157°32'2 1.5 29.9
2014-Sep-11 19:00N 07°53' E 157°33'4 1.3 30.0
2014-Sep-11 16:00N 07°57' E 157°34'0 0.0 30.0
2014-Sep-11 15:00N 07°57' E 157°34'0 0.1 30.0
2014-Sep-11 14:00N 07°57' E 157°34'2 0.6 30.0
2014-Sep-11 10:00N 07°59' E 157°35'0 0.0 30.0
2014-Sep-11 09:00N 07°59' E 157°35'1 0.5 30.1
2014-Sep-11 06:00N 07°59' E 157°36'2 0.6 30.2
2014-Sep-11 02:00N 08°01' E 157°37'1 0.3 30.4
2014-Sep-10 22:00N 08°02' E 157°36'1 0.5 30.0
2014-Sep-10 19:00N 08°01' E 157°37'1 0.6 30.0
2014-Sep-10 18:00N 08°01' E 157°37'0 0.0 30.0
2014-Sep-10 17:00N 08°01' E 157°37'1 0.2 30.0
2014-Sep-10 11:00N 08°00' E 157°38'   30.2

Dump ship's entire track history